sensor_id;sensor_type;location;lat;lon;timestamp;P1;durP1;ratioP1;P2;durP2;ratioP2
45236;SDS011;30973;51.442;3.580;2024-02-14T00:01:13;6.05;;;5.40;;
45236;SDS011;30973;51.442;3.580;2024-02-14T00:03:40;7.50;;;5.75;;
45236;SDS011;30973;51.442;3.580;2024-02-14T00:06:08;5.55;;;4.78;;
45236;SDS011;30973;51.442;3.580;2024-02-14T00:08:35;5.97;;;5.10;;
45236;SDS011;30973;51.442;3.580;2024-02-14T00:11:04;8.93;;;5.20;;
45236;SDS011;30973;51.442;3.580;2024-02-14T00:13:32;6.18;;;4.90;;
45236;SDS011;30973;51.442;3.580;2024-02-14T00:16:01;6.60;;;5.00;;
45236;SDS011;30973;51.442;3.580;2024-02-14T00:18:29;5.25;;;4.45;;
45236;SDS011;30973;51.442;3.580;2024-02-14T00:20:57;5.35;;;4.60;;
45236;SDS011;30973;51.442;3.580;2024-02-14T00:23:24;7.80;;;5.78;;
45236;SDS011;30973;51.442;3.580;2024-02-14T00:25:52;8.85;;;4.93;;
45236;SDS011;30973;51.442;3.580;2024-02-14T00:28:19;8.73;;;5.25;;
45236;SDS011;30973;51.442;3.580;2024-02-14T00:30:50;9.10;;;4.72;;
45236;SDS011;30973;51.442;3.580;2024-02-14T00:33:17;6.05;;;5.18;;
45236;SDS011;30973;51.442;3.580;2024-02-14T00:35:47;9.07;;;5.45;;
45236;SDS011;30973;51.442;3.580;2024-02-14T00:38:15;8.25;;;5.22;;
45236;SDS011;30973;51.442;3.580;2024-02-14T00:40:43;9.18;;;4.78;;
45236;SDS011;30973;51.442;3.580;2024-02-14T00:43:11;5.85;;;4.72;;
45236;SDS011;30973;51.442;3.580;2024-02-14T00:45:39;5.63;;;4.85;;
45236;SDS011;30973;51.442;3.580;2024-02-14T00:48:06;5.93;;;4.28;;
45236;SDS011;30973;51.442;3.580;2024-02-14T00:50:35;5.25;;;4.68;;
45236;SDS011;30973;51.442;3.580;2024-02-14T00:53:04;6.82;;;4.60;;
45236;SDS011;30973;51.442;3.580;2024-02-14T00:55:31;5.25;;;4.68;;
45236;SDS011;30973;51.442;3.580;2024-02-14T00:57:59;8.95;;;4.55;;
45236;SDS011;30973;51.442;3.580;2024-02-14T01:00:27;5.07;;;4.57;;
45236;SDS011;30973;51.442;3.580;2024-02-14T01:02:55;6.07;;;5.13;;
45236;SDS011;30973;51.442;3.580;2024-02-14T01:05:24;8.07;;;5.25;;
45236;SDS011;30973;51.442;3.580;2024-02-14T01:07:52;5.72;;;5.22;;
45236;SDS011;30973;51.442;3.580;2024-02-14T01:10:20;7.20;;;5.57;;
45236;SDS011;30973;51.442;3.580;2024-02-14T01:12:48;9.80;;;5.57;;
45236;SDS011;30973;51.442;3.580;2024-02-14T01:15:15;8.88;;;5.00;;
45236;SDS011;30973;51.442;3.580;2024-02-14T01:17:42;6.88;;;5.22;;
45236;SDS011;30973;51.442;3.580;2024-02-14T01:20:14;5.25;;;4.68;;
45236;SDS011;30973;51.442;3.580;2024-02-14T01:22:41;7.03;;;5.15;;
45236;SDS011;30973;51.442;3.580;2024-02-14T01:25:09;5.55;;;4.95;;
45236;SDS011;30973;51.442;3.580;2024-02-14T01:27:38;5.63;;;5.13;;
45236;SDS011;30973;51.442;3.580;2024-02-14T01:30:08;7.72;;;5.60;;
45236;SDS011;30973;51.442;3.580;2024-02-14T01:32:36;8.15;;;5.60;;
45236;SDS011;30973;51.442;3.580;2024-02-14T01:35:04;7.78;;;6.60;;
45236;SDS011;30973;51.442;3.580;2024-02-14T01:37:32;7.47;;;5.25;;
45236;SDS011;30973;51.442;3.580;2024-02-14T01:39:59;7.95;;;5.88;;
45236;SDS011;30973;51.442;3.580;2024-02-14T01:42:27;8.63;;;5.40;;
45236;SDS011;30973;51.442;3.580;2024-02-14T01:44:55;5.78;;;5.13;;
45236;SDS011;30973;51.442;3.580;2024-02-14T01:47:22;11.32;;;5.40;;
45236;SDS011;30973;51.442;3.580;2024-02-14T01:49:50;7.47;;;5.57;;
45236;SDS011;30973;51.442;3.580;2024-02-14T01:52:18;10.15;;;6.07;;
45236;SDS011;30973;51.442;3.580;2024-02-14T01:54:45;8.20;;;5.63;;
45236;SDS011;30973;51.442;3.580;2024-02-14T01:57:13;5.95;;;5.13;;
45236;SDS011;30973;51.442;3.580;2024-02-14T01:59:41;11.52;;;5.47;;
45236;SDS011;30973;51.442;3.580;2024-02-14T02:02:09;8.52;;;5.72;;
45236;SDS011;30973;51.442;3.580;2024-02-14T02:04:37;5.80;;;4.78;;
45236;SDS011;30973;51.442;3.580;2024-02-14T02:07:04;10.77;;;6.32;;
45236;SDS011;30973;51.442;3.580;2024-02-14T02:09:32;9.43;;;5.78;;
45236;SDS011;30973;51.442;3.580;2024-02-14T02:12:00;9.55;;;5.43;;
45236;SDS011;30973;51.442;3.580;2024-02-14T02:14:28;8.25;;;6.00;;
45236;SDS011;30973;51.442;3.580;2024-02-14T02:16:56;5.97;;;5.38;;
45236;SDS011;30973;51.442;3.580;2024-02-14T02:19:24;10.75;;;6.10;;
45236;SDS011;30973;51.442;3.580;2024-02-14T02:21:51;11.27;;;6.35;;
45236;SDS011;30973;51.442;3.580;2024-02-14T02:24:19;10.40;;;6.05;;
45236;SDS011;30973;51.442;3.580;2024-02-14T02:26:47;10.00;;;6.03;;
45236;SDS011;30973;51.442;3.580;2024-02-14T02:29:14;8.65;;;6.47;;
45236;SDS011;30973;51.442;3.580;2024-02-14T02:31:43;7.53;;;5.30;;
45236;SDS011;30973;51.442;3.580;2024-02-14T02:34:11;7.85;;;5.40;;
45236;SDS011;30973;51.442;3.580;2024-02-14T02:36:44;6.78;;;5.70;;
45236;SDS011;30973;51.442;3.580;2024-02-14T02:39:12;7.40;;;4.90;;
45236;SDS011;30973;51.442;3.580;2024-02-14T02:41:40;7.50;;;5.93;;
45236;SDS011;30973;51.442;3.580;2024-02-14T02:44:08;8.57;;;5.97;;
45236;SDS011;30973;51.442;3.580;2024-02-14T02:46:35;10.85;;;6.35;;
45236;SDS011;30973;51.442;3.580;2024-02-14T02:49:03;9.55;;;6.18;;
45236;SDS011;30973;51.442;3.580;2024-02-14T02:51:30;6.13;;;5.32;;
45236;SDS011;30973;51.442;3.580;2024-02-14T02:53:58;11.50;;;6.18;;
45236;SDS011;30973;51.442;3.580;2024-02-14T02:56:26;9.52;;;5.40;;
45236;SDS011;30973;51.442;3.580;2024-02-14T02:58:55;10.23;;;6.78;;
45236;SDS011;30973;51.442;3.580;2024-02-14T03:01:22;8.85;;;5.90;;
45236;SDS011;30973;51.442;3.580;2024-02-14T03:03:51;8.82;;;6.15;;
45236;SDS011;30973;51.442;3.580;2024-02-14T03:06:20;12.05;;;6.72;;
45236;SDS011;30973;51.442;3.580;2024-02-14T03:08:47;9.45;;;5.88;;
45236;SDS011;30973;51.442;3.580;2024-02-14T03:11:15;9.18;;;6.28;;
45236;SDS011;30973;51.442;3.580;2024-02-14T03:13:43;8.15;;;6.82;;
45236;SDS011;30973;51.442;3.580;2024-02-14T03:16:10;9.55;;;6.70;;
45236;SDS011;30973;51.442;3.580;2024-02-14T03:18:38;10.30;;;6.40;;
45236;SDS011;30973;51.442;3.580;2024-02-14T03:21:05;11.50;;;7.03;;
45236;SDS011;30973;51.442;3.580;2024-02-14T03:23:33;8.18;;;6.20;;
45236;SDS011;30973;51.442;3.580;2024-02-14T03:26:00;7.22;;;6.50;;
45236;SDS011;30973;51.442;3.580;2024-02-14T03:28:29;8.88;;;6.40;;
45236;SDS011;30973;51.442;3.580;2024-02-14T03:30:56;9.23;;;6.03;;
45236;SDS011;30973;51.442;3.580;2024-02-14T03:33:24;12.68;;;6.07;;
45236;SDS011;30973;51.442;3.580;2024-02-14T03:35:51;8.13;;;5.50;;
45236;SDS011;30973;51.442;3.580;2024-02-14T03:38:28;8.75;;;5.85;;
45236;SDS011;30973;51.442;3.580;2024-02-14T03:40:58;7.93;;;6.35;;
45236;SDS011;30973;51.442;3.580;2024-02-14T03:43:25;11.45;;;6.05;;
45236;SDS011;30973;51.442;3.580;2024-02-14T03:45:54;8.45;;;7.35;;
45236;SDS011;30973;51.442;3.580;2024-02-14T03:48:22;8.80;;;6.60;;
45236;SDS011;30973;51.442;3.580;2024-02-14T03:50:50;11.68;;;6.38;;
45236;SDS011;30973;51.442;3.580;2024-02-14T03:53:17;8.38;;;7.50;;
45236;SDS011;30973;51.442;3.580;2024-02-14T03:55:45;7.18;;;5.78;;
45236;SDS011;30973;51.442;3.580;2024-02-14T03:58:12;10.40;;;6.43;;
45236;SDS011;30973;51.442;3.580;2024-02-14T04:00:41;10.88;;;6.60;;
45236;SDS011;30973;51.442;3.580;2024-02-14T04:03:13;10.45;;;6.45;;
45236;SDS011;30973;51.442;3.580;2024-02-14T04:05:41;11.00;;;5.93;;
45236;SDS011;30973;51.442;3.580;2024-02-14T04:08:08;9.23;;;6.35;;
45236;SDS011;30973;51.442;3.580;2024-02-14T04:10:37;7.15;;;5.90;;
45236;SDS011;30973;51.442;3.580;2024-02-14T04:13:04;8.52;;;5.90;;
45236;SDS011;30973;51.442;3.580;2024-02-14T04:15:32;9.80;;;6.50;;
45236;SDS011;30973;51.442;3.580;2024-02-14T04:17:59;7.05;;;5.97;;
45236;SDS011;30973;51.442;3.580;2024-02-14T04:20:32;6.72;;;6.00;;
45236;SDS011;30973;51.442;3.580;2024-02-14T04:23:01;7.55;;;5.50;;
45236;SDS011;30973;51.442;3.580;2024-02-14T04:25:29;9.77;;;5.93;;
45236;SDS011;30973;51.442;3.580;2024-02-14T04:27:57;9.65;;;5.80;;
45236;SDS011;30973;51.442;3.580;2024-02-14T04:30:25;8.95;;;6.20;;
45236;SDS011;30973;51.442;3.580;2024-02-14T04:32:53;8.63;;;6.68;;
45236;SDS011;30973;51.442;3.580;2024-02-14T04:35:21;7.53;;;6.80;;
45236;SDS011;30973;51.442;3.580;2024-02-14T04:37:48;7.07;;;6.38;;
45236;SDS011;30973;51.442;3.580;2024-02-14T04:40:16;10.60;;;7.30;;
45236;SDS011;30973;51.442;3.580;2024-02-14T04:42:44;10.02;;;7.15;;
45236;SDS011;30973;51.442;3.580;2024-02-14T04:45:12;8.88;;;6.60;;
45236;SDS011;30973;51.442;3.580;2024-02-14T04:47:40;7.55;;;6.43;;
45236;SDS011;30973;51.442;3.580;2024-02-14T04:50:10;9.30;;;6.47;;
45236;SDS011;30973;51.442;3.580;2024-02-14T04:52:40;6.90;;;6.22;;
45236;SDS011;30973;51.442;3.580;2024-02-14T04:55:07;9.23;;;6.90;;
45236;SDS011;30973;51.442;3.580;2024-02-14T04:57:35;9.18;;;6.80;;
45236;SDS011;30973;51.442;3.580;2024-02-14T05:00:04;7.55;;;6.78;;
45236;SDS011;30973;51.442;3.580;2024-02-14T05:02:32;10.05;;;7.32;;
45236;SDS011;30973;51.442;3.580;2024-02-14T05:04:59;8.15;;;6.72;;
45236;SDS011;30973;51.442;3.580;2024-02-14T05:07:28;12.07;;;5.97;;
45236;SDS011;30973;51.442;3.580;2024-02-14T05:09:56;8.40;;;6.15;;
45236;SDS011;30973;51.442;3.580;2024-02-14T05:12:23;8.02;;;6.60;;
45236;SDS011;30973;51.442;3.580;2024-02-14T05:14:51;7.93;;;7.13;;
45236;SDS011;30973;51.442;3.580;2024-02-14T05:17:19;8.82;;;6.97;;
45236;SDS011;30973;51.442;3.580;2024-02-14T05:19:46;11.20;;;8.27;;
45236;SDS011;30973;51.442;3.580;2024-02-14T05:22:14;8.27;;;6.85;;
45236;SDS011;30973;51.442;3.580;2024-02-14T05:24:42;10.10;;;7.13;;
45236;SDS011;30973;51.442;3.580;2024-02-14T05:27:09;7.80;;;6.50;;
45236;SDS011;30973;51.442;3.580;2024-02-14T05:29:37;7.63;;;6.70;;
45236;SDS011;30973;51.442;3.580;2024-02-14T05:32:05;7.53;;;6.80;;
45236;SDS011;30973;51.442;3.580;2024-02-14T05:34:35;9.80;;;6.80;;
45236;SDS011;30973;51.442;3.580;2024-02-14T05:37:03;7.85;;;7.05;;
45236;SDS011;30973;51.442;3.580;2024-02-14T05:39:32;11.65;;;7.47;;
45236;SDS011;30973;51.442;3.580;2024-02-14T05:42:00;10.20;;;7.38;;
45236;SDS011;30973;51.442;3.580;2024-02-14T05:44:27;12.57;;;6.85;;
45236;SDS011;30973;51.442;3.580;2024-02-14T05:46:56;7.70;;;6.95;;
45236;SDS011;30973;51.442;3.580;2024-02-14T05:49:34;13.43;;;8.05;;
45236;SDS011;30973;51.442;3.580;2024-02-14T05:52:18;9.23;;;6.90;;
45236;SDS011;30973;51.442;3.580;2024-02-14T05:54:53;12.57;;;8.20;;
45236;SDS011;30973;51.442;3.580;2024-02-14T05:57:29;11.55;;;7.70;;
45236;SDS011;30973;51.442;3.580;2024-02-14T05:59:57;11.77;;;7.78;;
45236;SDS011;30973;51.442;3.580;2024-02-14T06:02:24;10.88;;;7.53;;
45236;SDS011;30973;51.442;3.580;2024-02-14T06:04:52;11.20;;;7.22;;
45236;SDS011;30973;51.442;3.580;2024-02-14T06:07:19;16.98;;;8.10;;
45236;SDS011;30973;51.442;3.580;2024-02-14T06:09:47;8.85;;;7.07;;
45236;SDS011;30973;51.442;3.580;2024-02-14T06:12:14;10.52;;;6.72;;
45236;SDS011;30973;51.442;3.580;2024-02-14T06:14:42;7.63;;;5.95;;
45236;SDS011;30973;51.442;3.580;2024-02-14T06:17:09;11.20;;;6.47;;
45236;SDS011;30973;51.442;3.580;2024-02-14T06:19:36;9.00;;;6.40;;
45236;SDS011;30973;51.442;3.580;2024-02-14T06:22:06;10.55;;;6.38;;
45236;SDS011;30973;51.442;3.580;2024-02-14T06:24:34;9.38;;;6.15;;
45236;SDS011;30973;51.442;3.580;2024-02-14T06:27:01;9.48;;;6.35;;
45236;SDS011;30973;51.442;3.580;2024-02-14T06:29:29;10.95;;;6.25;;
45236;SDS011;30973;51.442;3.580;2024-02-14T06:31:56;8.18;;;6.15;;
45236;SDS011;30973;51.442;3.580;2024-02-14T06:34:24;9.23;;;6.25;;
45236;SDS011;30973;51.442;3.580;2024-02-14T06:36:53;10.13;;;7.07;;
45236;SDS011;30973;51.442;3.580;2024-02-14T06:39:20;14.30;;;6.78;;
45236;SDS011;30973;51.442;3.580;2024-02-14T06:41:47;11.50;;;6.55;;
45236;SDS011;30973;51.442;3.580;2024-02-14T06:44:15;11.73;;;6.88;;
45236;SDS011;30973;51.442;3.580;2024-02-14T06:46:42;11.65;;;6.70;;
45236;SDS011;30973;51.442;3.580;2024-02-14T06:49:10;7.70;;;6.85;;
45236;SDS011;30973;51.442;3.580;2024-02-14T06:51:37;10.48;;;7.20;;
45236;SDS011;30973;51.442;3.580;2024-02-14T06:54:05;11.30;;;7.97;;
45236;SDS011;30973;51.442;3.580;2024-02-14T06:56:33;8.90;;;7.45;;
45236;SDS011;30973;51.442;3.580;2024-02-14T06:59:01;10.75;;;7.38;;
45236;SDS011;30973;51.442;3.580;2024-02-14T07:01:30;9.40;;;6.85;;
45236;SDS011;30973;51.442;3.580;2024-02-14T07:04:00;13.70;;;6.90;;
45236;SDS011;30973;51.442;3.580;2024-02-14T07:06:28;13.43;;;7.32;;
45236;SDS011;30973;51.442;3.580;2024-02-14T07:08:56;7.60;;;6.15;;
45236;SDS011;30973;51.442;3.580;2024-02-14T07:11:23;8.85;;;6.80;;
45236;SDS011;30973;51.442;3.580;2024-02-14T07:13:51;14.10;;;12.60;;
45236;SDS011;30973;51.442;3.580;2024-02-14T07:16:18;15.77;;;8.48;;
45236;SDS011;30973;51.442;3.580;2024-02-14T07:18:49;11.20;;;7.00;;
45236;SDS011;30973;51.442;3.580;2024-02-14T07:21:17;11.77;;;7.38;;
45236;SDS011;30973;51.442;3.580;2024-02-14T07:23:47;10.30;;;6.72;;
45236;SDS011;30973;51.442;3.580;2024-02-14T07:26:15;10.00;;;7.72;;
45236;SDS011;30973;51.442;3.580;2024-02-14T07:28:42;11.95;;;6.88;;
45236;SDS011;30973;51.442;3.580;2024-02-14T07:31:10;11.75;;;7.50;;
45236;SDS011;30973;51.442;3.580;2024-02-14T07:33:38;8.80;;;7.47;;
45236;SDS011;30973;51.442;3.580;2024-02-14T07:36:06;10.88;;;7.88;;
45236;SDS011;30973;51.442;3.580;2024-02-14T07:38:35;10.90;;;7.28;;
45236;SDS011;30973;51.442;3.580;2024-02-14T07:41:03;8.80;;;6.80;;
45236;SDS011;30973;51.442;3.580;2024-02-14T07:43:30;11.32;;;7.22;;
45236;SDS011;30973;51.442;3.580;2024-02-14T07:45:58;9.38;;;7.10;;
45236;SDS011;30973;51.442;3.580;2024-02-14T07:48:25;9.45;;;7.13;;
45236;SDS011;30973;51.442;3.580;2024-02-14T07:50:53;7.53;;;6.80;;
45236;SDS011;30973;51.442;3.580;2024-02-14T07:53:22;9.15;;;7.32;;
45236;SDS011;30973;51.442;3.580;2024-02-14T07:55:50;8.77;;;6.95;;
45236;SDS011;30973;51.442;3.580;2024-02-14T07:58:17;9.55;;;7.50;;
45236;SDS011;30973;51.442;3.580;2024-02-14T08:00:50;9.27;;;7.47;;
45236;SDS011;30973;51.442;3.580;2024-02-14T08:03:32;6.85;;;6.15;;
45236;SDS011;30973;51.442;3.580;2024-02-14T08:06:04;9.75;;;6.70;;
45236;SDS011;30973;51.442;3.580;2024-02-14T08:08:32;8.82;;;6.75;;
45236;SDS011;30973;51.442;3.580;2024-02-14T08:10:59;8.57;;;6.60;;
45236;SDS011;30973;51.442;3.580;2024-02-14T08:13:27;10.30;;;7.63;;
45236;SDS011;30973;51.442;3.580;2024-02-14T08:15:54;8.90;;;7.85;;
45236;SDS011;30973;51.442;3.580;2024-02-14T08:18:22;11.90;;;8.27;;
45236;SDS011;30973;51.442;3.580;2024-02-14T08:20:50;11.88;;;7.80;;
45236;SDS011;30973;51.442;3.580;2024-02-14T08:23:17;11.13;;;8.35;;
45236;SDS011;30973;51.442;3.580;2024-02-14T08:25:46;11.07;;;8.20;;
45236;SDS011;30973;51.442;3.580;2024-02-14T08:28:15;12.18;;;8.63;;
45236;SDS011;30973;51.442;3.580;2024-02-14T08:30:44;10.35;;;8.20;;
45236;SDS011;30973;51.442;3.580;2024-02-14T08:33:12;8.30;;;7.53;;
45236;SDS011;30973;51.442;3.580;2024-02-14T08:35:40;10.20;;;7.63;;
45236;SDS011;30973;51.442;3.580;2024-02-14T08:38:09;10.15;;;8.00;;
45236;SDS011;30973;51.442;3.580;2024-02-14T08:40:36;9.85;;;8.38;;
45236;SDS011;30973;51.442;3.580;2024-02-14T08:43:04;9.95;;;8.05;;
45236;SDS011;30973;51.442;3.580;2024-02-14T08:45:31;13.55;;;8.68;;
45236;SDS011;30973;51.442;3.580;2024-02-14T08:48:00;8.77;;;7.97;;
45236;SDS011;30973;51.442;3.580;2024-02-14T08:50:28;10.15;;;7.45;;
45236;SDS011;30973;51.442;3.580;2024-02-14T08:52:57;12.27;;;8.82;;
45236;SDS011;30973;51.442;3.580;2024-02-14T08:55:24;9.18;;;8.02;;
45236;SDS011;30973;51.442;3.580;2024-02-14T08:57:52;8.93;;;7.95;;
45236;SDS011;30973;51.442;3.580;2024-02-14T09:00:19;9.10;;;8.20;;
45236;SDS011;30973;51.442;3.580;2024-02-14T09:02:48;11.27;;;8.85;;
45236;SDS011;30973;51.442;3.580;2024-02-14T09:05:16;9.48;;;8.57;;
45236;SDS011;30973;51.442;3.580;2024-02-14T09:07:44;11.02;;;8.73;;
45236;SDS011;30973;51.442;3.580;2024-02-14T09:10:12;12.73;;;10.27;;
45236;SDS011;30973;51.442;3.580;2024-02-14T09:12:39;11.07;;;9.60;;
45236;SDS011;30973;51.442;3.580;2024-02-14T09:15:10;10.60;;;9.35;;
45236;SDS011;30973;51.442;3.580;2024-02-14T09:17:50;11.48;;;10.38;;
45236;SDS011;30973;51.442;3.580;2024-02-14T09:20:19;11.98;;;10.65;;
45236;SDS011;30973;51.442;3.580;2024-02-14T09:22:50;12.45;;;11.15;;
45236;SDS011;30973;51.442;3.580;2024-02-14T09:25:18;14.35;;;12.07;;
45236;SDS011;30973;51.442;3.580;2024-02-14T09:27:45;13.07;;;11.30;;
45236;SDS011;30973;51.442;3.580;2024-02-14T09:30:14;14.80;;;11.40;;
45236;SDS011;30973;51.442;3.580;2024-02-14T09:32:57;12.63;;;11.52;;
45236;SDS011;30973;51.442;3.580;2024-02-14T09:35:27;12.82;;;11.52;;
45236;SDS011;30973;51.442;3.580;2024-02-14T09:37:55;13.48;;;10.90;;
45236;SDS011;30973;51.442;3.580;2024-02-14T09:40:22;14.77;;;11.98;;
45236;SDS011;30973;51.442;3.580;2024-02-14T09:42:53;12.57;;;11.30;;
45236;SDS011;30973;51.442;3.580;2024-02-14T09:45:28;13.68;;;10.98;;
45236;SDS011;30973;51.442;3.580;2024-02-14T09:47:57;12.63;;;11.10;;
45236;SDS011;30973;51.442;3.580;2024-02-14T09:50:25;13.73;;;10.52;;
45236;SDS011;30973;51.442;3.580;2024-02-14T09:52:53;12.93;;;10.65;;
45236;SDS011;30973;51.442;3.580;2024-02-14T09:55:22;11.60;;;10.50;;
45236;SDS011;30973;51.442;3.580;2024-02-14T09:57:50;12.13;;;10.40;;
45236;SDS011;30973;51.442;3.580;2024-02-14T10:00:17;12.43;;;10.23;;
45236;SDS011;30973;51.442;3.580;2024-02-14T10:02:45;10.73;;;8.90;;
45236;SDS011;30973;51.442;3.580;2024-02-14T10:05:16;10.77;;;9.70;;
45236;SDS011;30973;51.442;3.580;2024-02-14T10:07:43;10.18;;;9.13;;
45236;SDS011;30973;51.442;3.580;2024-02-14T10:10:13;9.60;;;8.48;;
45236;SDS011;30973;51.442;3.580;2024-02-14T10:12:41;12.38;;;7.90;;
45236;SDS011;30973;51.442;3.580;2024-02-14T10:15:09;8.32;;;7.53;;
45236;SDS011;30973;51.442;3.580;2024-02-14T10:17:38;8.77;;;7.30;;
45236;SDS011;30973;51.442;3.580;2024-02-14T10:20:07;9.07;;;7.38;;
45236;SDS011;30973;51.442;3.580;2024-02-14T10:22:36;8.38;;;7.57;;
45236;SDS011;30973;51.442;3.580;2024-02-14T10:25:05;10.88;;;7.82;;
45236;SDS011;30973;51.442;3.580;2024-02-14T10:27:36;9.15;;;8.35;;
45236;SDS011;30973;51.442;3.580;2024-02-14T10:30:05;8.68;;;7.85;;
45236;SDS011;30973;51.442;3.580;2024-02-14T10:32:37;9.65;;;8.00;;
45236;SDS011;30973;51.442;3.580;2024-02-14T10:35:08;8.93;;;8.02;;
45236;SDS011;30973;51.442;3.580;2024-02-14T10:37:39;8.38;;;7.70;;
45236;SDS011;30973;51.442;3.580;2024-02-14T10:40:06;7.93;;;7.18;;
45236;SDS011;30973;51.442;3.580;2024-02-14T10:42:35;7.53;;;6.85;;
45236;SDS011;30973;51.442;3.580;2024-02-14T10:45:03;8.35;;;7.55;;
45236;SDS011;30973;51.442;3.580;2024-02-14T10:47:35;8.18;;;6.85;;
45236;SDS011;30973;51.442;3.580;2024-02-14T10:50:04;10.20;;;6.97;;
45236;SDS011;30973;51.442;3.580;2024-02-14T10:52:36;8.25;;;6.55;;
45236;SDS011;30973;51.442;3.580;2024-02-14T10:55:04;7.10;;;6.47;;
45236;SDS011;30973;51.442;3.580;2024-02-14T10:57:32;8.35;;;6.15;;
45236;SDS011;30973;51.442;3.580;2024-02-14T11:00:18;7.20;;;6.68;;
45236;SDS011;30973;51.442;3.580;2024-02-14T11:02:46;6.88;;;6.38;;
45236;SDS011;30973;51.442;3.580;2024-02-14T11:05:42;6.30;;;5.55;;
45236;SDS011;30973;51.442;3.580;2024-02-14T11:08:14;6.75;;;6.25;;
45236;SDS011;30973;51.442;3.580;2024-02-14T11:10:41;8.30;;;6.50;;
45236;SDS011;30973;51.442;3.580;2024-02-14T11:13:13;9.02;;;6.85;;
45236;SDS011;30973;51.442;3.580;2024-02-14T11:15:44;7.18;;;6.57;;
45236;SDS011;30973;51.442;3.580;2024-02-14T11:18:13;7.15;;;6.32;;
45236;SDS011;30973;51.442;3.580;2024-02-14T11:20:41;7.70;;;7.05;;
45236;SDS011;30973;51.442;3.580;2024-02-14T11:23:20;7.13;;;6.60;;
45236;SDS011;30973;51.442;3.580;2024-02-14T11:25:48;7.65;;;7.00;;
45236;SDS011;30973;51.442;3.580;2024-02-14T11:28:19;6.97;;;6.45;;
45236;SDS011;30973;51.442;3.580;2024-02-14T11:30:49;7.45;;;6.75;;
45236;SDS011;30973;51.442;3.580;2024-02-14T11:33:18;7.47;;;6.65;;
45236;SDS011;30973;51.442;3.580;2024-02-14T11:35:49;7.82;;;7.22;;
45236;SDS011;30973;51.442;3.580;2024-02-14T11:38:39;6.43;;;6.00;;
45236;SDS011;30973;51.442;3.580;2024-02-14T11:41:07;7.13;;;6.57;;
45236;SDS011;30973;51.442;3.580;2024-02-14T11:43:35;7.72;;;6.95;;
45236;SDS011;30973;51.442;3.580;2024-02-14T11:46:06;7.93;;;6.53;;
45236;SDS011;30973;51.442;3.580;2024-02-14T11:48:33;7.03;;;6.32;;
45236;SDS011;30973;51.442;3.580;2024-02-14T11:51:03;7.63;;;7.00;;
45236;SDS011;30973;51.442;3.580;2024-02-14T11:53:34;7.15;;;6.35;;
45236;SDS011;30973;51.442;3.580;2024-02-14T11:56:02;7.03;;;6.50;;
45236;SDS011;30973;51.442;3.580;2024-02-14T11:58:29;6.93;;;6.32;;
45236;SDS011;30973;51.442;3.580;2024-02-14T12:00:57;6.63;;;5.88;;
45236;SDS011;30973;51.442;3.580;2024-02-14T12:03:25;7.25;;;6.63;;
45236;SDS011;30973;51.442;3.580;2024-02-14T12:05:54;7.03;;;6.53;;
45236;SDS011;30973;51.442;3.580;2024-02-14T12:08:23;7.57;;;7.07;;
45236;SDS011;30973;51.442;3.580;2024-02-14T12:10:51;7.50;;;6.93;;
45236;SDS011;30973;51.442;3.580;2024-02-14T12:13:22;6.95;;;6.35;;
45236;SDS011;30973;51.442;3.580;2024-02-14T12:15:50;7.30;;;6.80;;
45236;SDS011;30973;51.442;3.580;2024-02-14T12:18:19;6.80;;;6.10;;
45236;SDS011;30973;51.442;3.580;2024-02-14T12:20:48;9.70;;;7.53;;
45236;SDS011;30973;51.442;3.580;2024-02-14T12:23:22;8.65;;;6.10;;
45236;SDS011;30973;51.442;3.580;2024-02-14T12:25:53;6.57;;;5.97;;
45236;SDS011;30973;51.442;3.580;2024-02-14T12:28:20;6.18;;;5.63;;
45236;SDS011;30973;51.442;3.580;2024-02-14T12:30:49;6.90;;;5.63;;
45236;SDS011;30973;51.442;3.580;2024-02-14T12:33:24;8.57;;;6.13;;
45236;SDS011;30973;51.442;3.580;2024-02-14T12:35:55;5.95;;;5.45;;
45236;SDS011;30973;51.442;3.580;2024-02-14T12:38:24;6.32;;;5.72;;
45236;SDS011;30973;51.442;3.580;2024-02-14T12:40:52;6.82;;;6.13;;
45236;SDS011;30973;51.442;3.580;2024-02-14T12:43:22;6.90;;;6.18;;
45236;SDS011;30973;51.442;3.580;2024-02-14T12:45:50;6.90;;;6.20;;
45236;SDS011;30973;51.442;3.580;2024-02-14T12:48:22;6.50;;;6.00;;
45236;SDS011;30973;51.442;3.580;2024-02-14T12:50:51;6.28;;;5.78;;
45236;SDS011;30973;51.442;3.580;2024-02-14T12:53:19;7.38;;;5.30;;
45236;SDS011;30973;51.442;3.580;2024-02-14T12:55:47;7.15;;;6.50;;
45236;SDS011;30973;51.442;3.580;2024-02-14T12:58:15;7.07;;;6.45;;
45236;SDS011;30973;51.442;3.580;2024-02-14T13:00:42;7.55;;;6.95;;
45236;SDS011;30973;51.442;3.580;2024-02-14T13:03:11;7.05;;;6.43;;
45236;SDS011;30973;51.442;3.580;2024-02-14T13:05:43;6.53;;;6.03;;
45236;SDS011;30973;51.442;3.580;2024-02-14T13:08:11;6.43;;;6.03;;
45236;SDS011;30973;51.442;3.580;2024-02-14T13:10:39;6.13;;;5.55;;
45236;SDS011;30973;51.442;3.580;2024-02-14T13:13:06;7.03;;;6.32;;
45236;SDS011;30973;51.442;3.580;2024-02-14T13:15:33;7.50;;;5.70;;
45236;SDS011;30973;51.442;3.580;2024-02-14T13:18:01;6.95;;;5.65;;
45236;SDS011;30973;51.442;3.580;2024-02-14T13:20:29;5.75;;;5.20;;
45236;SDS011;30973;51.442;3.580;2024-02-14T13:22:57;6.22;;;5.63;;
45236;SDS011;30973;51.442;3.580;2024-02-14T13:25:25;7.35;;;5.68;;
45236;SDS011;30973;51.442;3.580;2024-02-14T13:27:52;6.15;;;5.55;;
45236;SDS011;30973;51.442;3.580;2024-02-14T13:30:21;5.28;;;4.78;;
45236;SDS011;30973;51.442;3.580;2024-02-14T13:32:49;5.40;;;4.70;;
45236;SDS011;30973;51.442;3.580;2024-02-14T13:35:17;5.05;;;4.55;;
45236;SDS011;30973;51.442;3.580;2024-02-14T13:37:45;5.10;;;4.63;;
45236;SDS011;30973;51.442;3.580;2024-02-14T13:40:13;5.38;;;4.53;;
45236;SDS011;30973;51.442;3.580;2024-02-14T13:42:41;4.57;;;4.18;;
45236;SDS011;30973;51.442;3.580;2024-02-14T13:45:08;4.88;;;4.47;;
45236;SDS011;30973;51.442;3.580;2024-02-14T13:47:39;4.53;;;4.22;;
45236;SDS011;30973;51.442;3.580;2024-02-14T13:50:08;5.05;;;4.25;;
45236;SDS011;30973;51.442;3.580;2024-02-14T13:52:36;4.63;;;4.22;;
45236;SDS011;30973;51.442;3.580;2024-02-14T13:55:04;4.53;;;4.15;;
45236;SDS011;30973;51.442;3.580;2024-02-14T13:57:35;4.50;;;4.10;;
45236;SDS011;30973;51.442;3.580;2024-02-14T14:00:05;5.18;;;4.63;;
45236;SDS011;30973;51.442;3.580;2024-02-14T14:02:37;5.07;;;4.68;;
45236;SDS011;30973;51.442;3.580;2024-02-14T14:05:11;4.22;;;3.92;;
45236;SDS011;30973;51.442;3.580;2024-02-14T14:10:19;4.10;;;3.90;;
45236;SDS011;30973;51.442;3.580;2024-02-14T14:12:47;4.90;;;4.40;;
45236;SDS011;30973;51.442;3.580;2024-02-14T14:15:15;4.30;;;3.88;;
45236;SDS011;30973;51.442;3.580;2024-02-14T14:17:42;4.80;;;4.28;;
45236;SDS011;30973;51.442;3.580;2024-02-14T14:20:10;5.07;;;4.32;;
45236;SDS011;30973;51.442;3.580;2024-02-14T14:22:39;13.70;;;5.40;;
45236;SDS011;30973;51.442;3.580;2024-02-14T14:25:07;4.47;;;4.07;;
45236;SDS011;30973;51.442;3.580;2024-02-14T14:27:35;5.72;;;4.25;;
45236;SDS011;30973;51.442;3.580;2024-02-14T14:30:03;4.78;;;4.00;;
45236;SDS011;30973;51.442;3.580;2024-02-14T14:32:31;4.95;;;4.50;;
45236;SDS011;30973;51.442;3.580;2024-02-14T14:34:58;10.63;;;5.03;;
45236;SDS011;30973;51.442;3.580;2024-02-14T14:37:26;4.20;;;3.80;;
45236;SDS011;30973;51.442;3.580;2024-02-14T14:39:53;6.50;;;3.80;;
45236;SDS011;30973;51.442;3.580;2024-02-14T14:42:23;4.20;;;3.63;;
45236;SDS011;30973;51.442;3.580;2024-02-14T14:44:58;4.18;;;3.67;;
45236;SDS011;30973;51.442;3.580;2024-02-14T14:47:26;4.82;;;3.42;;
45236;SDS011;30973;51.442;3.580;2024-02-14T14:50:00;5.13;;;3.72;;
45236;SDS011;30973;51.442;3.580;2024-02-14T14:52:30;7.93;;;3.65;;
45236;SDS011;30973;51.442;3.580;2024-02-14T14:55:00;5.03;;;3.97;;